createdAt,value
2022-09-28T00:01:27.173Z,94066.28
2022-09-28T00:04:30.354Z,94065.63
2022-09-28T00:07:33.347Z,94058.28
2022-09-28T00:10:37.794Z,94052.66
2022-09-28T00:13:41.288Z,94049.53
2022-09-28T00:16:45.786Z,94044.22
2022-09-28T00:19:48.863Z,94040.00
2022-09-28T00:22:52.249Z,94040.00
2022-09-28T00:25:56.723Z,94039.06
2022-09-28T00:29:01.915Z,94054.25
2022-09-28T00:32:06.987Z,94045.00
2022-09-28T00:35:10.911Z,94044.72
2022-09-28T00:38:16.757Z,94046.44
2022-09-28T00:41:21.237Z,94039.09
2022-09-28T00:44:54.006Z,94036.00
2022-09-28T00:48:00.595Z,94042.88
2022-09-28T00:51:09.201Z,94042.09
2022-09-28T00:54:14.715Z,94038.53
2022-09-28T00:57:19.195Z,94042.72
2022-09-28T01:00:22.335Z,94039.28
2022-09-28T01:03:26.547Z,94027.44
2022-09-28T01:06:34.654Z,94037.75
2022-09-28T01:09:40.759Z,94039.63
2022-09-28T01:12:45.269Z,94046.50
2022-09-28T01:15:55.154Z,94050.72
2022-09-28T01:19:12.973Z,94051.34
2022-09-28T01:22:32.060Z,94059.66
2022-09-28T01:25:42.228Z,94049.31
2022-09-28T01:28:51.791Z,94049.03
2022-09-28T01:32:02.544Z,94041.34
2022-09-28T01:35:10.299Z,94054.19
2022-09-28T01:38:18.641Z,94054.97
2022-09-28T01:41:24.086Z,94054.97
2022-09-28T01:44:31.334Z,94077.34
2022-09-28T01:47:39.664Z,94067.34
2022-09-28T01:50:45.756Z,94063.13
2022-09-28T01:53:52.749Z,94056.06
2022-09-28T01:57:01.658Z,94065.16
2022-09-28T02:00:10.659Z,94066.88
2022-09-28T02:03:17.889Z,94075.19
2022-09-28T02:06:26.547Z,94059.69
2022-09-28T02:09:36.054Z,94077.38
2022-09-28T02:12:42.748Z,94080.22
2022-09-28T02:15:52.854Z,94089.78
2022-09-28T02:18:56.569Z,94088.50
2022-09-28T02:22:05.636Z,94080.06
2022-09-28T02:25:13.005Z,94088.19
2022-09-28T02:28:16.097Z,94086.94
2022-09-28T02:31:20.929Z,94081.00
2022-09-28T02:34:24.407Z,94088.50
2022-09-28T02:37:28.444Z,94082.41
2022-09-28T02:40:34.018Z,94089.00
2022-09-28T02:43:51.260Z,94070.53
2022-09-28T02:47:01.315Z,94086.16
2022-09-28T02:50:16.288Z,94073.34
2022-09-28T02:53:51.531Z,94077.88
2022-09-28T02:57:04.494Z,94083.50
2022-09-28T03:00:11.987Z,94079.16
2022-09-28T03:03:22.000Z,94086.22
2022-09-28T03:06:32.986Z,94100.09
2022-09-28T03:09:42.309Z,94092.91
2022-09-28T03:12:47.533Z,94082.47
2022-09-28T03:15:50.570Z,94098.22
2022-09-28T03:18:55.383Z,94106.78
2022-09-28T03:21:59.439Z,94101.63
2022-09-28T03:25:02.626Z,94111.16
2022-09-28T03:28:05.839Z,94109.28
2022-09-28T03:31:08.978Z,94117.41
2022-09-28T03:34:13.728Z,94121.81
2022-09-28T03:37:17.002Z,94111.94
2022-09-28T03:40:20.100Z,94108.97
2022-09-28T03:43:24.305Z,94117.41
2022-09-28T03:46:27.493Z,94114.41
2022-09-28T03:49:32.047Z,94131.16
2022-09-28T03:52:35.136Z,94122.06
2022-09-28T03:55:38.443Z,94126.28
2022-09-28T03:58:41.813Z,94121.28
2022-09-28T04:01:44.906Z,94121.88
2022-09-28T04:04:49.569Z,94122.91
2022-09-28T04:07:53.929Z,94123.00
2022-09-28T04:10:57.918Z,94117.22
2022-09-28T04:14:00.937Z,94112.84
2022-09-28T04:17:05.016Z,94102.22
2022-09-28T04:20:10.546Z,94111.75
2022-09-28T04:23:13.660Z,94101.97
2022-09-28T04:26:18.813Z,94103.84
2022-09-28T04:29:21.104Z,94104.94
2022-09-28T04:32:24.696Z,94100.84
2022-09-28T04:35:29.190Z,94111.16
2022-09-28T04:38:51.799Z,94112.28
2022-09-28T04:41:55.306Z,94101.63
2022-09-28T04:44:58.936Z,94120.09
2022-09-28T04:48:02.260Z,94098.03
2022-09-28T04:51:06.964Z,94111.97
2022-09-28T04:54:10.008Z,94116.22
2022-09-28T04:57:12.996Z,94109.69
2022-09-28T05:00:17.208Z,94117.06
2022-09-28T05:03:21.027Z,94093.28
2022-09-28T05:06:28.097Z,94117.66
2022-09-28T05:09:33.990Z,94095.75
2022-09-28T05:12:43.288Z,94100.41
2022-09-28T05:15:47.417Z,94128.88
2022-09-28T05:18:50.444Z,94115.91
2022-09-28T05:21:58.161Z,94124.53
2022-09-28T05:25:03.150Z,94134.69
2022-09-28T05:28:06.777Z,94127.50
2022-09-28T05:31:09.870Z,94139.06
2022-09-28T05:34:12.880Z,94126.09
2022-09-28T05:37:17.758Z,94137.50
2022-09-28T05:40:21.248Z,94119.38
2022-09-28T05:43:24.559Z,94141.88
2022-09-28T05:46:27.799Z,94140.47
2022-09-28T05:49:32.666Z,94149.53
2022-09-28T05:52:37.231Z,94137.63
2022-09-28T05:55:40.470Z,94139.97
2022-09-28T05:58:43.559Z,94126.03
2022-09-28T06:01:46.727Z,94125.25
2022-09-28T06:04:53.709Z,94140.41
2022-09-28T06:07:59.903Z,94139.78
2022-09-28T06:11:03.831Z,94153.38
2022-09-28T06:14:07.858Z,94142.88
2022-09-28T06:17:10.979Z,94138.94
2022-09-28T06:20:14.268Z,94141.31
2022-09-28T06:23:19.058Z,94148.47
2022-09-28T06:26:22.692Z,94152.69
2022-09-28T06:29:25.740Z,94154.53
2022-09-28T06:32:29.850Z,94148.78
2022-09-28T06:35:33.843Z,94156.53
2022-09-28T06:38:39.000Z,94162.06
2022-09-28T06:41:42.620Z,94162.50
2022-09-28T06:44:47.169Z,94166.41
2022-09-28T06:47:54.878Z,94162.53
2022-09-28T06:50:57.927Z,94163.47
2022-09-28T06:54:02.375Z,94160.66
2022-09-28T06:57:06.195Z,94178.16
2022-09-28T07:00:10.693Z,94182.59
2022-09-28T07:03:15.826Z,94171.03
2022-09-28T07:06:20.834Z,94175.44
2022-09-28T07:09:33.031Z,94180.31
2022-09-28T07:12:36.665Z,94169.34
2022-09-28T07:15:40.214Z,94165.72
2022-09-28T07:18:43.384Z,94182.63
2022-09-28T07:21:54.261Z,94178.88
2022-09-28T07:25:03.991Z,94170.50
2022-09-28T07:28:07.129Z,94167.03
2022-09-28T07:31:12.020Z,94182.44
2022-09-28T07:34:15.319Z,94179.72
2022-09-28T07:37:20.208Z,94165.25
2022-09-28T07:40:45.134Z,94173.66
2022-09-28T07:43:51.542Z,94180.22
2022-09-28T07:46:54.797Z,94180.84
2022-09-28T07:49:58.048Z,94182.56
2022-09-28T07:53:01.706Z,94174.13
2022-09-28T07:56:09.909Z,94195.47
2022-09-28T07:59:13.932Z,94195.31
2022-09-28T08:02:18.660Z,94186.00
2022-09-28T08:05:21.976Z,94186.66
2022-09-28T08:08:25.076Z,94189.38
2022-09-28T08:11:29.666Z,94194.78
2022-09-28T08:14:34.542Z,94197.91
2022-09-28T08:17:37.703Z,94189.53
2022-09-28T08:21:12.592Z,94191.88
2022-09-28T08:24:17.156Z,94184.25
2022-09-28T08:27:21.798Z,94174.13
2022-09-28T08:30:25.120Z,94187.38
2022-09-28T08:33:28.262Z,94199.22
2022-09-28T08:36:31.329Z,94192.91
2022-09-28T08:39:34.965Z,94184.16
2022-09-28T08:42:43.198Z,94186.00
2022-09-28T08:45:46.536Z,94180.00
2022-09-28T08:49:20.679Z,94184.03
2022-09-28T08:52:23.707Z,94179.63
2022-09-28T08:55:32.191Z,94176.75
2022-09-28T08:58:42.289Z,94159.97
2022-09-28T09:01:50.249Z,94161.84
2022-09-28T09:04:53.891Z,94159.75
2022-09-28T09:08:23.331Z,94152.03
2022-09-28T09:11:43.211Z,94140.81
2022-09-28T09:15:20.654Z,94158.56
2022-09-28T09:18:35.486Z,94160.34
2022-09-28T09:21:42.716Z,94158.63
2022-09-28T09:24:52.061Z,94165.28
2022-09-28T09:28:19.446Z,94155.28
2022-09-28T09:31:41.240Z,94153.97
2022-09-28T09:35:10.239Z,94154.88
2022-09-28T09:38:37.136Z,94142.91
2022-09-28T09:41:54.758Z,94147.38
2022-09-28T09:45:12.913Z,94140.31
2022-09-28T09:48:27.289Z,94131.97
2022-09-28T09:51:38.451Z,94139.44
2022-09-28T09:54:47.413Z,94131.88
2022-09-28T09:57:57.040Z,94131.22
2022-09-28T10:01:07.706Z,94124.34
2022-09-28T10:04:19.453Z,94124.59
2022-09-28T10:07:26.895Z,94124.25
2022-09-28T10:10:32.171Z,94126.66
2022-09-28T10:13:35.604Z,94121.66
2022-09-28T10:16:38.878Z,94124.09
2022-09-28T10:19:44.676Z,94109.63
2022-09-28T10:22:48.697Z,94120.66
2022-09-28T10:25:54.368Z,94111.88
2022-09-28T10:29:02.069Z,94115.66
2022-09-28T10:32:19.856Z,94115.34
2022-09-28T10:35:28.271Z,94102.00
2022-09-28T10:38:35.504Z,94102.78
2022-09-28T10:41:52.565Z,94100.91
2022-09-28T10:44:59.462Z,94095.44
2022-09-28T10:48:04.330Z,94098.44
2022-09-28T10:51:09.806Z,94090.44
2022-09-28T10:54:17.435Z,94079.66
2022-09-28T10:57:29.766Z,94077.91
2022-09-28T11:00:37.431Z,94073.69
2022-09-28T11:03:52.454Z,94080.44
2022-09-28T11:10:04.325Z,94062.09
2022-09-28T11:13:10.926Z,94065.44
2022-09-28T11:16:26.646Z,94065.44
2022-09-28T11:19:30.916Z,94057.44
2022-09-28T11:22:42.774Z,94057.00
2022-09-28T11:25:58.085Z,94059.66
2022-09-28T11:29:01.150Z,94065.00
2022-09-28T11:32:06.302Z,94060.78
2022-09-28T11:35:19.855Z,94047.44
2022-09-28T11:38:40.934Z,94032.25
2022-09-28T11:41:55.413Z,94040.69
2022-09-28T11:45:05.872Z,94039.56
2022-09-28T11:48:16.183Z,94030.81
2022-09-28T11:51:27.375Z,94041.34
2022-09-28T11:54:38.855Z,94047.44
2022-09-28T11:57:46.455Z,94043.56
2022-09-28T12:00:55.728Z,94045.78
2022-09-28T12:04:03.577Z,94042.34
2022-09-28T12:07:12.848Z,94034.34
2022-09-28T12:10:23.353Z,94026.03
2022-09-28T12:13:29.559Z,94015.38
2022-09-28T12:20:06.011Z,94014.16
2022-09-28T12:23:15.153Z,94025.91
2022-09-28T12:26:30.508Z,94017.44
2022-09-28T12:29:42.223Z,94028.44
2022-09-28T12:32:50.677Z,94029.44
2022-09-28T12:36:10.225Z,94031.75
2022-09-28T12:39:57.510Z,94033.66
2022-09-28T12:43:30.313Z,94026.31
2022-09-28T12:46:50.632Z,94014.09
2022-09-28T12:50:37.590Z,94025.53
2022-09-28T12:53:57.265Z,94019.44
2022-09-28T12:57:18.231Z,94028.09
2022-09-28T13:00:25.316Z,94020.53
2022-09-28T13:03:52.205Z,94013.22
2022-09-28T13:07:06.651Z,94020.09
2022-09-28T13:10:20.829Z,94025.44
2022-09-28T13:13:39.356Z,94020.44
2022-09-28T13:16:52.180Z,94025.44
2022-09-28T13:19:59.898Z,94030.31
2022-09-28T13:23:21.108Z,94024.97
2022-09-28T13:26:28.895Z,94026.88
2022-09-28T13:29:35.086Z,94018.41
2022-09-28T13:32:40.211Z,94024.97
2022-09-28T13:35:45.353Z,94030.31
2022-09-28T13:38:52.717Z,94029.31
2022-09-28T13:41:56.082Z,94028.09
2022-09-28T13:45:28.230Z,94032.19
2022-09-28T13:48:48.725Z,94027.66
2022-09-28T13:52:05.745Z,94017.81
2022-09-28T13:55:33.309Z,94023.41
2022-09-28T13:58:43.819Z,94019.66
2022-09-28T14:01:55.980Z,94016.50
2022-09-28T14:05:03.088Z,94013.22
2022-09-28T14:08:34.845Z,94000.22
2022-09-28T14:11:55.643Z,93993.03
2022-09-28T14:14:59.247Z,94014.31
2022-09-28T14:18:11.657Z,94005.59
2022-09-28T14:21:38.105Z,94006.63
2022-09-28T14:25:08.506Z,94011.00
2022-09-28T14:28:29.684Z,94004.91
2022-09-28T14:31:32.850Z,93999.56
2022-09-28T14:34:38.226Z,94001.66
2022-09-28T14:38:01.248Z,94011.00
2022-09-28T14:41:14.314Z,94014.00
2022-09-28T14:44:17.473Z,93997.72
2022-09-28T14:47:34.385Z,94018.53
2022-09-28T14:50:37.903Z,94005.56
2022-09-28T14:53:43.387Z,94009.00
2022-09-28T14:56:57.780Z,94012.44
2022-09-28T15:00:02.213Z,94015.88
2022-09-28T15:03:11.414Z,94021.66
2022-09-28T15:06:17.171Z,94028.41
2022-09-28T15:09:33.194Z,94026.06
2022-09-28T15:12:36.260Z,94017.75
2022-09-28T15:15:42.412Z,94012.59
2022-09-28T15:19:05.020Z,94018.69
2022-09-28T15:22:17.101Z,94029.53
2022-09-28T15:25:25.048Z,94042.03
2022-09-28T15:28:28.169Z,94037.03
2022-09-28T15:31:37.306Z,94042.84
2022-09-28T15:34:57.058Z,94028.47
2022-09-28T15:38:00.349Z,94045.19
2022-09-28T15:41:07.843Z,94042.84
2022-09-28T15:44:37.235Z,94049.59
2022-09-28T15:47:41.169Z,94045.81
2022-09-28T15:51:11.178Z,94047.84
2022-09-28T15:54:19.760Z,94041.41
2022-09-28T15:57:39.552Z,94044.06
2022-09-28T16:00:43.402Z,94051.50
2022-09-28T16:03:46.506Z,94041.53
2022-09-28T16:07:06.826Z,94045.41
2022-09-28T16:10:30.432Z,94046.97
2022-09-28T16:13:35.533Z,94043.84
2022-09-28T16:16:49.767Z,94032.50
2022-09-28T16:19:52.889Z,94040.19
2022-09-28T16:22:57.208Z,94037.81
2022-09-28T16:26:03.166Z,94042.50
2022-09-28T16:29:26.718Z,94048.28
2022-09-28T16:32:56.536Z,94057.50
2022-09-28T16:36:08.473Z,94051.28
2022-09-28T16:39:12.592Z,94050.50
2022-09-28T16:42:15.805Z,94059.63
2022-09-28T16:45:23.427Z,94059.31
2022-09-28T16:48:32.229Z,94062.81
2022-09-28T16:51:35.421Z,94063.50
2022-09-28T16:54:56.362Z,94056.19
2022-09-28T16:58:04.977Z,94055.50
2022-09-28T17:01:13.223Z,94060.06
2022-09-28T17:04:16.618Z,94056.97
2022-09-28T17:07:20.738Z,94058.66
2022-09-28T17:10:50.197Z,94037.66
2022-09-28T17:14:03.614Z,94058.44
2022-09-28T17:20:32.544Z,94057.66
2022-09-28T17:23:37.439Z,94057.22
2022-09-28T17:26:51.012Z,94061.00
2022-09-28T17:30:46.504Z,94059.44
2022-09-28T17:33:51.714Z,94062.72
2022-09-28T17:36:56.184Z,94066.50
2022-09-28T17:39:59.366Z,94058.50
2022-09-28T17:43:04.208Z,94062.88
2022-09-28T17:46:26.074Z,94068.66
2022-09-28T17:52:46.217Z,94073.75
2022-09-28T17:55:49.247Z,94079.88
2022-09-28T17:58:52.603Z,94084.19
2022-09-28T18:01:58.315Z,94089.19
2022-09-28T18:05:05.312Z,94085.75
2022-09-28T18:08:08.303Z,94091.22
2022-09-28T18:11:11.703Z,94095.78
2022-09-28T18:14:17.942Z,94101.13
2022-09-28T18:17:20.993Z,94104.41
2022-09-28T18:20:25.396Z,94103.97
2022-09-28T18:23:28.394Z,94104.06
2022-09-28T18:26:31.400Z,94117.09
2022-09-28T18:29:34.732Z,94113.66
2022-09-28T18:32:38.658Z,94112.88
2022-09-28T18:35:51.248Z,94121.78
2022-09-28T18:38:54.231Z,94116.09
2022-09-28T18:41:57.356Z,94115.66
2022-09-28T18:45:00.490Z,94110.34
2022-09-28T18:48:03.702Z,94123.00
2022-09-28T18:51:11.946Z,94125.66
2022-09-28T18:54:15.420Z,94128.53
2022-09-28T18:57:18.466Z,94126.19
2022-09-28T19:00:21.637Z,94136.19
2022-09-28T19:03:24.745Z,94146.88
2022-09-28T19:06:30.584Z,94144.66
2022-09-28T19:09:33.998Z,94144.75
2022-09-28T19:12:39.136Z,94142.44
2022-09-28T19:15:42.269Z,94150.09
2022-09-28T19:18:45.855Z,94140.53
2022-09-28T19:21:50.530Z,94133.66
2022-09-28T19:24:53.540Z,94129.75
2022-09-28T19:27:56.606Z,94136.53
2022-09-28T19:34:03.454Z,94140.59
2022-09-28T19:37:07.955Z,94151.25
2022-09-28T19:40:11.666Z,94149.84
2022-09-28T19:43:14.898Z,94155.19
2022-09-28T19:46:18.019Z,94157.84
2022-09-28T19:49:22.374Z,94158.97
2022-09-28T19:52:26.818Z,94165.06
2022-09-28T19:55:36.290Z,94163.50
2022-09-28T19:58:39.376Z,94162.41
2022-09-28T20:01:42.662Z,94166.63
2022-09-28T20:04:45.699Z,94166.28
2022-09-28T20:07:50.257Z,94159.84
2022-09-28T20:10:54.919Z,94157.53
2022-09-28T20:13:59.737Z,94165.19
2022-09-28T20:17:06.438Z,94155.63
2022-09-28T20:20:09.984Z,94170.06
2022-09-28T20:23:14.571Z,94179.63
2022-09-28T20:26:18.051Z,94171.19
2022-09-28T20:29:21.739Z,94176.50
2022-09-28T20:32:24.762Z,94172.13
2022-09-28T20:35:32.933Z,94182.09
2022-09-28T20:38:40.510Z,94179.00
2022-09-28T20:41:43.508Z,94164.44
2022-09-28T20:44:49.592Z,94177.28
2022-09-28T20:47:52.669Z,94178.38
2022-09-28T20:51:00.808Z,94183.25
2022-09-28T20:54:05.285Z,94194.25
2022-09-28T20:57:17.620Z,94179.25
2022-09-28T21:00:20.895Z,94175.81
2022-09-28T21:03:24.906Z,94186.78
2022-09-28T21:06:29.346Z,94189.00
2022-09-28T21:09:33.927Z,94193.84
2022-09-28T21:12:37.011Z,94204.03
2022-09-28T21:15:40.188Z,94196.84
2022-09-28T21:18:43.776Z,94201.84
2022-09-28T21:21:46.851Z,94214.38
2022-09-28T21:24:51.257Z,94213.28
2022-09-28T21:27:54.321Z,94196.84
2022-09-28T21:30:58.085Z,94208.56
2022-09-28T21:34:04.667Z,94210.94
2022-09-28T21:37:07.704Z,94225.34
2022-09-28T21:40:12.347Z,94225.34
2022-09-28T21:43:15.615Z,94224.25
2022-09-28T21:46:18.708Z,94221.09
2022-09-28T21:49:22.259Z,94207.66
2022-09-28T21:52:26.092Z,94216.88
2022-09-28T21:55:31.577Z,94225.97
2022-09-28T21:58:36.611Z,94209.09
2022-09-28T22:01:42.895Z,94213.75
2022-09-28T22:04:46.140Z,94195.44
2022-09-28T22:07:49.244Z,94184.47
2022-09-28T22:11:01.894Z,94191.69
2022-09-28T22:14:04.959Z,94194.34
2022-09-28T22:17:07.963Z,94199.66
2022-09-28T22:20:11.320Z,94197.34
2022-09-28T22:23:14.925Z,94196.09
2022-09-28T22:26:21.646Z,94188.56
2022-09-28T22:29:24.761Z,94210.97
2022-09-28T22:32:27.765Z,94208.63
2022-09-28T22:35:30.713Z,94215.19
2022-09-28T22:38:34.055Z,94218.19
2022-09-28T22:41:38.391Z,94195.31
2022-09-28T22:44:41.694Z,94188.75
2022-09-28T22:47:44.708Z,94212.41
2022-09-28T22:50:51.274Z,94207.06
2022-09-28T22:53:54.692Z,94200.66
2022-09-28T22:56:59.171Z,94199.09
2022-09-28T23:00:02.648Z,94209.75
2022-09-28T23:03:05.847Z,94203.19
2022-09-28T23:06:10.942Z,94194.41
2022-09-28T23:09:14.038Z,94203.50
2022-09-28T23:12:18.416Z,94202.69
2022-09-28T23:15:21.648Z,94208.34
2022-09-28T23:18:24.863Z,94201.13
2022-09-28T23:21:29.318Z,94200.38
2022-09-28T23:24:32.373Z,94211.78
2022-09-28T23:27:41.758Z,94210.22
2022-09-28T23:30:44.725Z,94204.47
2022-09-28T23:33:47.921Z,94199.47
2022-09-28T23:36:53.049Z,94181.94
2022-09-28T23:39:56.043Z,94194.47
2022-09-28T23:43:00.386Z,94199.47
2022-09-28T23:46:03.541Z,94191.16
2022-09-28T23:49:06.755Z,94194.13
2022-09-28T23:52:09.808Z,94196.00
2022-09-28T23:55:12.839Z,94200.56
2022-09-28T23:58:17.686Z,94199.47
